Time,TemperatureF,DewpointF,PressureIn,WindDirection,WindDirectionDegrees,WindSpeedMPH,WindSpeedGustMPH,Humidity,HourlyPrecipIn,Conditions,Clouds,dailyrainin,SolarRadiationWatts/m^2,SoftwareType,DateUTC
2013-03-29 00:02:00,43.0,12.0,30.35,ESE,120,3.0,8.0,28,0.00,,,-99.99,0.000000,,2013-03-29 06:02:00,
2013-03-29 00:12:00,42.0,14.0,30.36,ESE,120,6.0,8.0,31,0.00,,,-99.99,0.000000,,2013-03-29 06:12:00,
2013-03-29 00:42:00,42.0,14.0,30.36,ESE,120,6.0,8.0,31,0.00,,,-99.99,0.000000,,2013-03-29 06:42:00,
2013-03-29 00:52:00,42.0,14.0,30.36,ESE,120,6.0,8.0,31,0.00,,,-99.99,0.000000,,2013-03-29 06:52:00,
2013-03-29 01:02:00,42.0,14.0,30.36,ESE,120,6.0,8.0,31,0.00,,,-99.99,0.000000,,2013-03-29 07:02:00,
2013-03-29 01:12:00,42.0,11.0,30.35,SE,128,3.0,7.0,28,0.00,,,-99.99,0.000000,,2013-03-29 07:12:00,
2013-03-29 01:32:00,42.0,11.0,30.35,SE,128,3.0,7.0,28,0.00,,,-99.99,0.000000,,2013-03-29 07:32:00,
2013-03-29 01:42:00,42.0,11.0,30.35,SE,128,3.0,7.0,28,0.00,,,-99.99,0.000000,,2013-03-29 07:42:00,
2013-03-29 01:52:00,42.0,11.0,30.35,SE,128,3.0,7.0,28,0.00,,,-99.99,0.000000,,2013-03-29 07:52:00,
2013-03-29 02:02:00,42.0,11.0,30.35,SE,128,3.0,7.0,28,0.00,,,-99.99,0.000000,,2013-03-29 08:02:00,
2013-03-29 02:12:00,42.0,10.0,30.37,SE,139,0.0,5.0,27,0.00,,,-99.99,0.000000,,2013-03-29 08:12:00,
2013-03-29 02:32:00,42.0,10.0,30.37,SE,139,0.0,5.0,27,0.00,,,-99.99,0.000000,,2013-03-29 08:32:00,
2013-03-29 02:42:00,42.0,10.0,30.37,SE,139,0.0,5.0,27,0.00,,,-99.99,0.000000,,2013-03-29 08:42:00,
2013-03-29 02:53:00,42.0,10.0,30.37,SE,139,0.0,5.0,27,0.00,,,-99.99,0.000000,,2013-03-29 08:53:00,
2013-03-29 03:02:00,42.0,10.0,30.37,SE,139,0.0,5.0,27,0.00,,,-99.99,0.000000,,2013-03-29 09:02:00,
2013-03-29 03:12:00,41.0,13.0,30.36,WNW,299,4.0,14.0,31,0.00,,,-99.99,0.000000,,2013-03-29 09:12:00,
2013-03-29 03:43:00,41.0,13.0,30.36,WNW,299,4.0,14.0,31,0.00,,,-99.99,0.000000,,2013-03-29 09:43:00,
2013-03-29 03:52:00,41.0,13.0,30.36,WNW,299,4.0,14.0,31,0.00,,,-99.99,0.000000,,2013-03-29 09:52:00,
2013-03-29 04:02:00,41.0,13.0,30.36,WNW,299,4.0,14.0,31,0.00,,,-99.99,0.000000,,2013-03-29 10:02:00,
2013-03-29 04:12:00,40.0,13.0,30.38,NNW,330,0.0,6.0,32,0.00,,,-99.99,0.000000,,2013-03-29 10:12:00,
2013-03-29 04:33:00,40.0,13.0,30.38,NNW,330,0.0,6.0,32,0.00,,,-99.99,0.000000,,2013-03-29 10:33:00,
2013-03-29 04:42:00,40.0,13.0,30.38,NNW,330,0.0,6.0,32,0.00,,,-99.99,0.000000,,2013-03-29 10:42:00,
2013-03-29 04:53:00,40.0,13.0,30.38,NNW,330,0.0,6.0,32,0.00,,,-99.99,0.000000,,2013-03-29 10:53:00,
2013-03-29 05:03:00,40.0,13.0,30.38,NNW,330,0.0,6.0,32,0.00,,,-99.99,0.000000,,2013-03-29 11:03:00,
2013-03-29 05:12:00,36.0,15.0,30.38,NW,313,10.0,21.0,42,0.00,,,-99.99,0.000000,,2013-03-29 11:12:00,
2013-03-29 05:33:00,36.0,15.0,30.38,NW,313,10.0,21.0,42,0.00,,,-99.99,0.000000,,2013-03-29 11:33:00,
2013-03-29 05:43:00,36.0,15.0,30.38,NW,313,10.0,21.0,42,0.00,,,-99.99,0.000000,,2013-03-29 11:43:00,
2013-03-29 05:52:00,36.0,15.0,30.38,NW,313,10.0,21.0,42,0.00,,,-99.99,0.000000,,2013-03-29 11:52:00,
2013-03-29 06:02:00,36.0,15.0,30.38,NW,313,10.0,21.0,42,0.00,,,-99.99,0.000000,,2013-03-29 12:02:00,
2013-03-29 06:12:00,37.0,20.0,30.39,NNE,14,11.0,22.0,50,0.00,,,-99.99,0.000000,,2013-03-29 12:12:00,
2013-03-29 06:32:00,37.0,20.0,30.39,NNE,14,11.0,22.0,50,0.00,,,-99.99,0.000000,,2013-03-29 12:32:00,
2013-03-29 06:43:00,37.0,20.0,30.39,NNE,14,11.0,22.0,50,0.00,,,-99.99,0.000000,,2013-03-29 12:43:00,
2013-03-29 06:53:00,37.0,20.0,30.39,NNE,14,11.0,22.0,50,0.00,,,-99.99,0.000000,,2013-03-29 12:53:00,
2013-03-29 07:02:00,37.0,20.0,30.39,NNE,14,11.0,22.0,50,0.00,,,-99.99,0.000000,,2013-03-29 13:02:00,
2013-03-29 07:12:00,37.0,20.0,30.41,NNE,27,4.0,11.0,50,0.00,,,-99.99,1.000000,,2013-03-29 13:12:00,
2013-03-29 07:33:00,37.0,20.0,30.41,NNE,27,4.0,11.0,50,0.00,,,-99.99,1.000000,,2013-03-29 13:33:00,
2013-03-29 07:43:00,37.0,20.0,30.41,NNE,27,4.0,11.0,50,0.00,,,-99.99,1.000000,,2013-03-29 13:43:00,
2013-03-29 07:53:00,37.0,20.0,30.41,NNE,27,4.0,11.0,50,0.00,,,-99.99,1.000000,,2013-03-29 13:53:00,
2013-03-29 08:02:00,37.0,20.0,30.41,NNE,27,4.0,11.0,50,0.00,,,-99.99,1.000000,,2013-03-29 14:02:00,
2013-03-29 08:33:00,36.0,18.0,30.42,ESE,102,12.0,16.0,47,0.00,,,-99.99,86.000000,,2013-03-29 14:33:00,
2013-03-29 08:42:00,36.0,18.0,30.42,ESE,102,12.0,16.0,47,0.00,,,-99.99,86.000000,,2013-03-29 14:42:00,
2013-03-29 08:52:00,36.0,18.0,30.42,ESE,102,12.0,16.0,47,0.00,,,-99.99,86.000000,,2013-03-29 14:52:00,
2013-03-29 09:02:00,36.0,18.0,30.42,ESE,102,12.0,16.0,47,0.00,,,-99.99,86.000000,,2013-03-29 15:02:00,
2013-03-29 09:11:00,36.0,18.0,30.42,ESE,102,12.0,16.0,47,0.00,,,-99.99,86.000000,,2013-03-29 15:11:00,
2013-03-29 09:12:00,38.0,20.0,30.43,ESE,102,12.0,17.0,48,0.00,,,-99.99,241.000000,,2013-03-29 15:12:00,
2013-03-29 09:33:00,38.0,20.0,30.43,ESE,102,12.0,17.0,48,0.00,,,-99.99,241.000000,,2013-03-29 15:33:00,
2013-03-29 09:43:00,38.0,20.0,30.43,ESE,102,12.0,17.0,48,0.00,,,-99.99,241.000000,,2013-03-29 15:43:00,
2013-03-29 09:53:00,38.0,20.0,30.43,ESE,102,12.0,17.0,48,0.00,,,-99.99,241.000000,,2013-03-29 15:53:00,
2013-03-29 10:03:00,38.0,20.0,30.43,ESE,102,12.0,17.0,48,0.00,,,-99.99,241.000000,,2013-03-29 16:03:00,
2013-03-29 10:33:00,41.0,21.0,30.42,ESE,104,9.0,14.0,44,0.00,,,-99.99,370.000000,,2013-03-29 16:33:00,
2013-03-29 10:43:00,41.0,21.0,30.42,ESE,104,9.0,14.0,44,0.00,,,-99.99,370.000000,,2013-03-29 16:43:00,
2013-03-29 10:53:00,41.0,21.0,30.42,ESE,104,9.0,14.0,44,0.00,,,-99.99,370.000000,,2013-03-29 16:53:00,
2013-03-29 11:02:00,41.0,21.0,30.42,ESE,104,9.0,14.0,44,0.00,,,-99.99,370.000000,,2013-03-29 17:02:00,
2013-03-29 11:11:00,41.0,21.0,30.42,ESE,104,9.0,14.0,44,0.00,,,-99.99,370.000000,,2013-03-29 17:11:00,
2013-03-29 11:12:00,49.0,20.0,30.43,SSW,192,3.0,13.0,31,0.00,,,-99.99,661.000000,,2013-03-29 17:12:00,
2013-03-29 11:43:00,49.0,20.0,30.43,SSW,192,3.0,13.0,31,0.00,,,-99.99,661.000000,,2013-03-29 17:43:00,
2013-03-29 11:52:00,49.0,20.0,30.43,SSW,192,3.0,13.0,31,0.00,,,-99.99,661.000000,,2013-03-29 17:52:00,
2013-03-29 12:02:00,49.0,20.0,30.43,SSW,192,3.0,13.0,31,0.00,,,-99.99,661.000000,,2013-03-29 18:02:00,
2013-03-29 12:12:00,52.0,19.0,30.43,WNW,282,8.0,18.0,27,0.00,,,0.00,1078.000000,,2013-03-29 18:12:00,
2013-03-29 12:43:00,52.0,19.0,30.43,WNW,282,8.0,18.0,27,0.00,,,0.00,1078.000000,,2013-03-29 18:43:00,
2013-03-29 12:52:00,52.0,19.0,30.43,WNW,282,8.0,18.0,27,0.00,,,0.00,1078.000000,,2013-03-29 18:52:00,
2013-03-29 13:02:00,52.0,19.0,30.43,WNW,282,8.0,18.0,27,0.00,,,0.00,1078.000000,,2013-03-29 19:02:00,
2013-03-29 13:12:00,52.0,19.0,30.40,WNW,285,9.0,18.0,27,0.00,,,0.00,1092.000000,,2013-03-29 19:12:00,
2013-03-29 13:33:00,52.0,19.0,30.40,WNW,285,9.0,18.0,27,0.00,,,0.00,1092.000000,,2013-03-29 19:33:00,
2013-03-29 13:43:00,52.0,19.0,30.40,WNW,285,9.0,18.0,27,0.00,,,0.00,1092.000000,,2013-03-29 19:43:00,
2013-03-29 13:52:00,52.0,19.0,30.40,WNW,285,9.0,18.0,27,0.00,,,0.00,1092.000000,,2013-03-29 19:52:00,
2013-03-29 14:02:00,52.0,19.0,30.40,WNW,285,9.0,18.0,27,0.00,,,0.00,1092.000000,,2013-03-29 20:02:00,
2013-03-29 14:42:00,50.0,21.0,30.39,WNW,302,9.0,32.0,31,0.00,,,0.00,696.000000,,2013-03-29 20:42:00,
2013-03-29 14:52:00,50.0,21.0,30.39,WNW,302,9.0,32.0,31,0.00,,,0.00,696.000000,,2013-03-29 20:52:00,
2013-03-29 15:02:00,50.0,21.0,30.39,WNW,302,9.0,32.0,31,0.00,,,0.00,696.000000,,2013-03-29 21:02:00,
2013-03-29 15:11:00,50.0,21.0,30.39,WNW,302,9.0,32.0,31,0.00,,,0.00,696.000000,,2013-03-29 21:11:00,
2013-03-29 15:12:00,48.0,22.0,30.39,NW,315,18.0,31.0,36,0.00,,,0.00,700.000000,,2013-03-29 21:12:00,
2013-03-29 15:43:00,48.0,22.0,30.39,NW,315,18.0,31.0,36,0.00,,,0.00,700.000000,,2013-03-29 21:43:00,
2013-03-29 15:53:00,48.0,22.0,30.39,NW,315,18.0,31.0,36,0.00,,,0.00,700.000000,,2013-03-29 21:53:00,
2013-03-29 16:03:00,48.0,22.0,30.39,NW,315,18.0,31.0,36,0.00,,,0.00,700.000000,,2013-03-29 22:03:00,
2013-03-29 16:12:00,46.0,22.0,30.39,WNW,290,6.0,39.0,39,0.00,,,0.00,406.000000,,2013-03-29 22:12:00,
2013-03-29 16:34:00,46.0,22.0,30.39,WNW,290,6.0,39.0,39,0.00,,,0.00,406.000000,,2013-03-29 22:34:00,
2013-03-29 16:43:00,46.0,22.0,30.39,WNW,290,6.0,39.0,39,0.00,,,0.00,406.000000,,2013-03-29 22:43:00,
2013-03-29 16:53:00,46.0,22.0,30.39,WNW,290,6.0,39.0,39,0.00,,,0.00,406.000000,,2013-03-29 22:53:00,
2013-03-29 17:02:00,46.0,22.0,30.39,WNW,290,6.0,39.0,39,0.00,,,0.00,406.000000,,2013-03-29 23:02:00,
2013-03-29 17:42:00,49.0,20.0,30.39,WNW,285,6.0,12.0,32,0.00,,,0.00,455.000000,,2013-03-29 23:42:00,
2013-03-29 17:52:00,49.0,20.0,30.39,WNW,285,6.0,12.0,32,0.00,,,0.00,455.000000,,2013-03-29 23:52:00,
2013-03-29 18:02:00,49.0,20.0,30.39,WNW,285,6.0,12.0,32,0.00,,,0.00,455.000000,,2013-03-30 00:02:00,
2013-03-29 18:11:00,49.0,20.0,30.39,WNW,285,6.0,12.0,32,0.00,,,0.00,455.000000,,2013-03-30 00:11:00,
2013-03-29 18:12:00,45.0,21.0,30.40,WNW,287,5.0,16.0,38,0.00,,,-99.99,161.000000,,2013-03-30 00:12:00,
2013-03-29 18:33:00,45.0,21.0,30.40,WNW,287,5.0,16.0,38,0.00,,,-99.99,161.000000,,2013-03-30 00:33:00,
2013-03-29 18:43:00,45.0,21.0,30.40,WNW,287,5.0,16.0,38,0.00,,,-99.99,161.000000,,2013-03-30 00:43:00,
2013-03-29 18:53:00,45.0,21.0,30.40,WNW,287,5.0,16.0,38,0.00,,,-99.99,161.000000,,2013-03-30 00:53:00,
2013-03-29 19:02:00,45.0,21.0,30.40,WNW,287,5.0,16.0,38,0.00,,,-99.99,161.000000,,2013-03-30 01:02:00,
2013-03-29 19:12:00,41.0,20.0,30.41,NW,324,9.0,13.0,43,0.00,,,0.00,49.000000,,2013-03-30 01:12:00,
2013-03-29 19:33:00,41.0,20.0,30.41,NW,324,9.0,13.0,43,0.00,,,0.00,49.000000,,2013-03-30 01:33:00,
2013-03-29 19:43:00,41.0,20.0,30.41,NW,324,9.0,13.0,43,0.00,,,0.00,49.000000,,2013-03-30 01:43:00,
2013-03-29 19:52:00,41.0,20.0,30.41,NW,324,9.0,13.0,43,0.00,,,0.00,49.000000,,2013-03-30 01:52:00,
2013-03-29 20:02:00,41.0,20.0,30.41,NW,324,9.0,13.0,43,0.00,,,0.00,49.000000,,2013-03-30 02:02:00,
2013-03-29 20:12:00,42.0,21.0,30.41,SSW,203,5.0,14.0,43,0.00,,,0.00,1.000000,,2013-03-30 02:12:00,
2013-03-29 20:43:00,42.0,21.0,30.41,SSW,203,5.0,14.0,43,0.00,,,0.00,1.000000,,2013-03-30 02:43:00,
2013-03-29 20:53:00,42.0,21.0,30.41,SSW,203,5.0,14.0,43,0.00,,,0.00,1.000000,,2013-03-30 02:53:00,
2013-03-29 21:02:00,42.0,21.0,30.41,SSW,203,5.0,14.0,43,0.00,,,0.00,1.000000,,2013-03-30 03:02:00,
2013-03-29 21:12:00,39.0,19.0,30.42,SE,143,2.0,13.0,45,0.00,,,0.00,0.000000,,2013-03-30 03:12:00,
2013-03-29 21:43:00,39.0,19.0,30.42,SE,143,2.0,13.0,45,0.00,,,0.00,0.000000,,2013-03-30 03:43:00,
2013-03-29 21:53:00,39.0,19.0,30.42,SE,143,2.0,13.0,45,0.00,,,0.00,0.000000,,2013-03-30 03:53:00,
2013-03-29 22:02:00,39.0,19.0,30.42,SE,143,2.0,13.0,45,0.00,,,0.00,0.000000,,2013-03-30 04:02:00,
2013-03-29 22:12:00,36.0,24.0,30.44,North,358,11.0,36.0,62,0.00,,,0.00,0.000000,,2013-03-30 04:12:00,
2013-03-29 22:33:00,36.0,24.0,30.44,North,358,11.0,36.0,62,0.00,,,0.00,0.000000,,2013-03-30 04:33:00,
2013-03-29 22:43:00,36.0,24.0,30.44,North,358,11.0,36.0,62,0.00,,,0.00,0.000000,,2013-03-30 04:43:00,
2013-03-29 22:53:00,36.0,24.0,30.44,North,358,11.0,36.0,62,0.00,,,0.00,0.000000,,2013-03-30 04:53:00,
2013-03-29 23:02:00,36.0,24.0,30.44,North,358,11.0,36.0,62,0.00,,,0.00,0.000000,,2013-03-30 05:02:00,
2013-03-29 23:32:00,37.0,21.0,30.44,SW,227,3.0,11.0,53,0.00,,,0.00,0.000000,,2013-03-30 05:32:00,
2013-03-29 23:42:00,37.0,21.0,30.44,SW,227,3.0,11.0,53,0.00,,,0.00,0.000000,,2013-03-30 05:42:00,
2013-03-29 23:52:00,37.0,21.0,30.44,SW,227,3.0,11.0,53,0.00,,,0.00,0.000000,,2013-03-30 05:52:00,